createdAt,value
2023-05-25T00:02:31.441Z,12.80
2023-05-25T00:05:04.474Z,12.74
2023-05-25T00:07:51.313Z,12.73
2023-05-25T00:10:24.973Z,12.73
2023-05-25T00:13:11.385Z,12.75
2023-05-25T00:15:44.607Z,12.73
2023-05-25T00:18:31.330Z,12.74
2023-05-25T00:21:06.792Z,12.76
2023-05-25T00:23:53.345Z,12.72
2023-05-25T00:26:26.422Z,12.70
2023-05-25T00:29:13.353Z,12.70
2023-05-25T00:31:46.439Z,12.67
2023-05-25T00:34:33.349Z,12.66
2023-05-25T00:37:06.452Z,12.66
2023-05-25T00:39:53.343Z,12.67
2023-05-25T00:42:28.175Z,12.65
2023-05-25T00:45:22.359Z,12.66
2023-05-25T00:48:18.379Z,12.67
2023-05-25T00:51:12.358Z,12.65
2023-05-25T00:53:59.356Z,12.63
2023-05-25T00:56:39.524Z,12.63
2023-05-25T00:59:42.346Z,12.60
2023-05-25T01:02:20.903Z,12.59
2023-05-25T01:05:09.360Z,12.57
2023-05-25T01:07:43.488Z,12.57
2023-05-25T01:10:32.393Z,12.59
2023-05-25T01:13:08.452Z,12.59
2023-05-25T01:15:56.399Z,12.59
2023-05-25T01:18:29.475Z,12.57
2023-05-25T01:21:26.383Z,12.53
2023-05-25T01:24:05.511Z,12.50
2023-05-25T01:27:02.374Z,12.48
2023-05-25T01:29:39.474Z,12.49
2023-05-25T01:32:27.422Z,12.48
2023-05-25T01:35:02.502Z,12.41
2023-05-25T01:37:56.438Z,12.41
2023-05-25T01:40:36.423Z,12.41
2023-05-25T01:43:30.395Z,12.41
2023-05-25T01:46:42.515Z,12.38
2023-05-25T01:49:38.390Z,12.36
2023-05-25T01:52:24.504Z,12.37
2023-05-25T01:55:25.382Z,12.35
2023-05-25T01:58:09.444Z,12.36
2023-05-25T02:01:04.409Z,12.38
2023-05-25T02:04:00.420Z,12.40
2023-05-25T02:06:47.395Z,12.38
2023-05-25T02:09:27.388Z,12.39
2023-05-25T02:12:21.406Z,12.39
2023-05-25T02:15:08.403Z,12.35
2023-05-25T02:17:41.567Z,12.32
2023-05-25T02:20:28.559Z,12.27
2023-05-25T02:23:08.434Z,12.27
2023-05-25T02:26:02.421Z,12.27
2023-05-25T02:28:49.396Z,12.27
2023-05-25T02:31:22.627Z,12.26
2023-05-25T02:34:09.422Z,12.25
2023-05-25T02:36:43.439Z,12.26
2023-05-25T02:39:32.464Z,12.23
2023-05-25T02:42:05.986Z,12.25
2023-05-25T02:44:54.432Z,12.26
2023-05-25T02:47:27.562Z,12.27
2023-05-25T02:50:14.406Z,12.29
2023-05-25T02:52:47.519Z,12.30
2023-05-25T02:55:34.432Z,12.31
2023-05-25T02:58:07.995Z,12.30
2023-05-25T03:00:54.467Z,12.31
2023-05-25T03:03:27.522Z,12.31
2023-05-25T03:06:14.447Z,12.28
2023-05-25T03:08:47.523Z,12.27
2023-05-25T03:11:35.456Z,12.25
2023-05-25T03:14:15.414Z,12.26
2023-05-25T03:17:09.437Z,12.25
2023-05-25T03:20:03.466Z,12.23
2023-05-25T03:22:57.426Z,12.25
2023-05-25T03:25:44.675Z,12.26
2023-05-25T03:28:18.524Z,12.27
2023-05-25T03:31:05.436Z,12.27
2023-05-25T03:33:48.441Z,12.27
2023-05-25T03:36:37.668Z,12.27
2023-05-25T03:39:12.570Z,12.28
2023-05-25T03:41:59.438Z,12.29
2023-05-25T03:44:32.550Z,12.31
2023-05-25T03:47:20.442Z,12.31
2023-05-25T03:49:53.561Z,12.32
2023-05-25T03:52:40.446Z,12.32
2023-05-25T03:55:15.275Z,12.31
2023-05-25T03:58:02.438Z,12.31
2023-05-25T04:00:42.451Z,12.30
2023-05-25T04:03:36.753Z,12.33
2023-05-25T04:06:25.535Z,12.34
2023-05-25T04:08:59.533Z,12.36
2023-05-25T04:11:46.434Z,12.36
2023-05-25T04:14:21.262Z,12.39
2023-05-25T04:17:08.452Z,12.39
2023-05-25T04:19:41.708Z,12.39
2023-05-25T04:22:28.469Z,12.41
2023-05-25T04:25:01.564Z,12.44
2023-05-25T04:27:48.440Z,12.45
2023-05-25T04:30:29.480Z,12.46
2023-05-25T04:33:24.516Z,12.49
2023-05-25T04:36:20.458Z,12.49
2023-05-25T04:39:10.455Z,12.51
2023-05-25T04:41:43.592Z,12.54
2023-05-25T04:44:37.459Z,12.54
2023-05-25T04:47:25.503Z,12.54
2023-05-25T04:49:59.574Z,12.53
2023-05-25T04:52:46.461Z,12.53
2023-05-25T04:55:26.515Z,12.56
2023-05-25T04:58:20.469Z,12.54
2023-05-25T05:01:07.563Z,12.56
2023-05-25T05:03:40.605Z,12.60
2023-05-25T05:06:28.459Z,12.62
2023-05-25T05:09:01.592Z,12.66
2023-05-25T05:11:48.484Z,12.70
2023-05-25T05:14:21.584Z,12.70
2023-05-25T05:17:08.476Z,12.71
2023-05-25T05:19:48.496Z,12.72
2023-05-25T05:22:42.503Z,12.69
2023-05-25T05:25:36.470Z,12.69
2023-05-25T05:28:33.487Z,12.70
2023-05-25T05:31:27.514Z,12.74
2023-05-25T05:34:21.501Z,12.77
2023-05-25T05:37:15.501Z,12.84
2023-05-25T05:40:09.508Z,12.86
2023-05-25T05:42:56.500Z,12.88
2023-05-25T05:45:29.590Z,12.90
2023-05-25T05:48:16.492Z,12.92
2023-05-25T05:50:49.737Z,12.96
2023-05-25T05:53:36.526Z,12.95
2023-05-25T05:56:11.327Z,12.99
2023-05-25T05:59:00.488Z,13.02
2023-05-25T06:01:33.601Z,13.07
2023-05-25T06:04:21.501Z,13.12
2023-05-25T06:06:55.848Z,13.15
2023-05-25T06:09:42.513Z,13.16
2023-05-25T06:12:31.582Z,13.20
2023-05-25T06:15:18.516Z,13.21
2023-05-25T06:17:51.635Z,13.24
2023-05-25T06:20:38.613Z,13.25
2023-05-25T06:23:20.530Z,13.26
2023-05-25T06:26:20.511Z,13.28
2023-05-25T06:29:07.506Z,13.27
2023-05-25T06:31:47.570Z,13.34
2023-05-25T06:34:35.940Z,13.39
2023-05-25T06:37:10.894Z,13.44
2023-05-25T06:39:57.775Z,13.49
2023-05-25T06:42:30.616Z,13.53
2023-05-25T06:45:17.577Z,13.54
2023-05-25T06:47:50.676Z,13.61
2023-05-25T06:50:37.516Z,13.66
2023-05-25T06:53:17.525Z,13.70
2023-05-25T06:56:11.547Z,13.74
2023-05-25T06:59:05.550Z,13.78
2023-05-25T07:02:02.540Z,13.81
2023-05-25T07:04:49.582Z,13.83
2023-05-25T07:07:29.552Z,13.78
2023-05-25T07:10:16.583Z,13.77
2023-05-25T07:12:56.541Z,13.77
2023-05-25T07:15:43.848Z,13.86
2023-05-25T07:18:24.575Z,13.96
2023-05-25T07:21:18.537Z,14.01
2023-05-25T07:24:05.557Z,14.09
2023-05-25T07:26:47.572Z,14.18
2023-05-25T07:29:44.540Z,14.27
2023-05-25T07:32:31.565Z,14.33
2023-05-25T07:35:04.650Z,14.40
2023-05-25T07:37:51.563Z,14.47
2023-05-25T07:40:31.575Z,14.54
2023-05-25T07:43:25.556Z,14.63
2023-05-25T07:46:19.592Z,14.64
2023-05-25T07:49:06.557Z,14.68
2023-05-25T07:51:46.581Z,14.71
2023-05-25T07:54:40.640Z,14.75
2023-05-25T07:57:34.567Z,14.85
2023-05-25T08:00:28.645Z,14.86
2023-05-25T08:03:15.638Z,14.85
2023-05-25T08:05:55.571Z,14.85
2023-05-25T08:08:51.569Z,14.88
2023-05-25T08:11:38.585Z,14.90
2023-05-25T08:14:18.580Z,14.97
2023-05-25T08:17:05.587Z,15.05
2023-05-25T08:19:38.686Z,15.09
2023-05-25T08:22:25.566Z,15.06
2023-05-25T08:24:58.676Z,15.07
2023-05-25T08:27:45.565Z,15.02
2023-05-25T08:30:18.738Z,15.10
2023-05-25T08:33:05.586Z,15.18
2023-05-25T08:35:43.273Z,15.36
2023-05-25T08:38:32.573Z,15.90
2023-05-25T08:41:17.590Z,16.46
2023-05-25T08:44:14.793Z,16.98
2023-05-25T08:47:03.585Z,17.42
2023-05-25T08:49:39.928Z,17.79
2023-05-25T08:52:33.634Z,17.99
2023-05-25T08:55:11.709Z,18.24
2023-05-25T08:58:03.617Z,18.46
2023-05-25T09:00:57.582Z,18.55
2023-05-25T09:03:52.649Z,18.85
2023-05-25T09:06:45.301Z,19.03
2023-05-25T09:09:20.738Z,19.28
2023-05-25T09:12:08.599Z,19.43
2023-05-25T09:14:52.596Z,19.55
2023-05-25T09:17:46.654Z,19.67
2023-05-25T09:20:41.437Z,19.82
2023-05-25T09:23:29.625Z,19.81
2023-05-25T09:26:04.747Z,19.86
2023-05-25T09:28:55.671Z,19.80
2023-05-25T09:31:30.857Z,19.89
2023-05-25T09:34:19.601Z,19.90
2023-05-25T09:36:52.856Z,20.13
2023-05-25T09:39:39.702Z,20.23
2023-05-25T09:42:12.762Z,20.30
2023-05-25T09:44:59.625Z,20.37
2023-05-25T09:47:37.426Z,20.45
2023-05-25T09:50:25.616Z,20.59
2023-05-25T09:53:04.117Z,20.64
2023-05-25T09:55:54.275Z,20.73
2023-05-25T09:58:36.618Z,20.85
2023-05-25T10:01:23.663Z,20.80
2023-05-25T10:04:04.347Z,21.00
2023-05-25T10:06:56.618Z,21.10
2023-05-25T10:09:36.843Z,21.30
2023-05-25T10:12:27.641Z,21.43
2023-05-25T10:15:01.746Z,21.52
2023-05-25T10:18:01.712Z,21.65
2023-05-25T10:20:43.723Z,21.50
2023-05-25T10:23:31.660Z,21.37
2023-05-25T10:26:13.680Z,21.40
2023-05-25T10:29:13.660Z,21.41
2023-05-25T10:32:00.686Z,21.32
2023-05-25T10:34:36.076Z,21.23
2023-05-25T10:37:22.649Z,21.31
2023-05-25T10:39:56.760Z,21.42
2023-05-25T10:42:45.668Z,21.56
2023-05-25T10:45:22.654Z,21.60
2023-05-25T10:48:09.758Z,21.52
2023-05-25T10:50:43.824Z,21.53
2023-05-25T10:53:30.685Z,21.66
2023-05-25T10:56:07.384Z,21.69
2023-05-25T10:58:54.666Z,21.82
2023-05-25T11:01:28.932Z,21.75
2023-05-25T11:04:18.724Z,21.66
2023-05-25T11:06:54.780Z,21.69
2023-05-25T11:09:47.680Z,21.90
2023-05-25T11:12:28.852Z,21.93
2023-05-25T11:15:21.691Z,22.03
2023-05-25T11:18:06.052Z,21.92
2023-05-25T11:20:52.757Z,21.79
2023-05-25T11:23:29.968Z,21.73
2023-05-25T11:26:30.695Z,21.58
2023-05-25T11:29:04.784Z,21.36
2023-05-25T11:31:57.724Z,21.26
2023-05-25T11:34:41.688Z,21.15
2023-05-25T11:37:37.686Z,21.18
2023-05-25T11:40:24.757Z,21.19
2023-05-25T11:43:06.695Z,21.19
2023-05-25T11:46:09.746Z,21.20
2023-05-25T11:48:58.702Z,21.24
2023-05-25T11:51:40.755Z,21.21
2023-05-25T11:54:41.727Z,21.09
2023-05-25T11:57:37.696Z,21.12
2023-05-25T12:00:32.758Z,21.16
2023-05-25T12:03:12.805Z,21.20
2023-05-25T12:06:06.763Z,21.20
2023-05-25T12:08:53.721Z,21.17
2023-05-25T12:11:45.356Z,21.20
2023-05-25T12:14:31.704Z,21.16
2023-05-25T12:17:04.925Z,21.13
2023-05-25T12:19:51.752Z,21.09
2023-05-25T12:22:31.723Z,20.94
2023-05-25T12:25:35.739Z,20.91
2023-05-25T12:28:32.762Z,20.79
2023-05-25T12:31:06.216Z,20.78
2023-05-25T12:34:10.749Z,20.72
2023-05-25T12:36:58.836Z,20.63
2023-05-25T12:39:45.736Z,20.48
2023-05-25T12:42:26.582Z,20.32
2023-05-25T12:45:20.751Z,20.20
2023-05-25T12:48:07.776Z,20.07
2023-05-25T12:50:48.795Z,20.00
2023-05-25T12:53:42.763Z,19.99
2023-05-25T12:56:29.759Z,19.93
2023-05-25T12:59:09.732Z,19.88
2023-05-25T13:02:03.778Z,19.85
2023-05-25T13:04:50.798Z,19.86
2023-05-25T13:07:23.928Z,19.81
2023-05-25T13:10:10.817Z,19.71
2023-05-25T13:12:44.848Z,19.70
2023-05-25T13:15:32.756Z,19.67
2023-05-25T13:18:12.883Z,19.66
2023-05-25T13:21:06.933Z,19.70
2023-05-25T13:23:53.767Z,19.73
2023-05-25T13:26:33.749Z,19.75
2023-05-25T13:29:20.769Z,19.74
2023-05-25T13:31:53.905Z,19.74
2023-05-25T13:34:41.779Z,19.70
2023-05-25T13:37:15.442Z,19.68
2023-05-25T13:40:02.760Z,19.63
2023-05-25T13:42:36.284Z,19.64
2023-05-25T13:45:29.757Z,19.68
2023-05-25T13:48:23.862Z,19.73
2023-05-25T13:51:17.776Z,19.72
2023-05-25T13:54:04.773Z,19.70
2023-05-25T13:56:37.922Z,19.68
2023-05-25T13:59:24.775Z,19.63
2023-05-25T14:01:57.941Z,19.58
2023-05-25T14:04:44.783Z,19.52
2023-05-25T14:07:17.929Z,19.47
2023-05-25T14:10:05.954Z,19.43
2023-05-25T14:12:39.921Z,19.39
2023-05-25T14:15:28.707Z,19.40
2023-05-25T14:18:01.945Z,19.39
2023-05-25T14:20:48.893Z,19.39
2023-05-25T14:23:21.970Z,19.34
2023-05-25T14:26:11.830Z,19.28
2023-05-25T14:28:44.925Z,19.22
2023-05-25T14:31:31.887Z,19.17
2023-05-25T14:34:04.903Z,19.17
2023-05-25T14:36:51.851Z,19.18
2023-05-25T14:39:25.010Z,19.18
2023-05-25T14:42:12.855Z,19.45
2023-05-25T14:44:52.791Z,19.33
2023-05-25T14:47:46.887Z,19.23
2023-05-25T14:50:42.632Z,19.15
2023-05-25T14:53:29.823Z,19.10
2023-05-25T14:56:11.381Z,19.11
2023-05-25T14:59:04.856Z,19.08
2023-05-25T15:01:52.937Z,19.05
2023-05-25T15:04:27.196Z,18.94
2023-05-25T15:07:16.557Z,18.83
2023-05-25T15:09:49.943Z,18.77
2023-05-25T15:12:39.821Z,18.67
2023-05-25T15:15:14.753Z,18.54
2023-05-25T15:18:01.852Z,18.41
2023-05-25T15:20:35.092Z,18.30
2023-05-25T15:23:24.855Z,18.17
2023-05-25T15:26:04.919Z,18.00
2023-05-25T15:28:51.902Z,17.79
2023-05-25T15:31:25.317Z,17.69
2023-05-25T15:34:11.881Z,17.48
2023-05-25T15:36:44.980Z,17.32
2023-05-25T15:39:31.928Z,17.18
2023-05-25T15:42:11.884Z,17.07
2023-05-25T15:44:58.861Z,16.88
2023-05-25T15:47:52.965Z,16.80
2023-05-25T15:50:46.863Z,16.66
2023-05-25T15:53:40.896Z,16.50
2023-05-25T15:56:28.909Z,16.42
2023-05-25T15:59:02.337Z,16.29
2023-05-25T16:01:48.910Z,16.24
2023-05-25T16:04:22.012Z,16.25
2023-05-25T16:07:08.907Z,16.19
2023-05-25T16:09:42.032Z,16.17
2023-05-25T16:12:28.901Z,16.13
2023-05-25T16:15:08.908Z,16.09
2023-05-25T16:18:02.862Z,16.08
2023-05-25T16:21:01.896Z,16.03
2023-05-25T16:23:55.885Z,15.99
2023-05-25T16:26:49.917Z,15.96
2023-05-25T16:29:36.900Z,15.96
2023-05-25T16:32:10.133Z,15.96
2023-05-25T16:34:56.908Z,15.94
2023-05-25T16:37:29.961Z,15.94
2023-05-25T16:40:19.910Z,15.93
2023-05-25T16:42:59.882Z,15.92
2023-05-25T16:45:53.955Z,15.92
2023-05-25T16:48:40.998Z,15.87
2023-05-25T16:51:15.910Z,15.84
2023-05-25T16:54:02.905Z,15.80
2023-05-25T16:56:42.952Z,15.78
2023-05-25T16:59:36.905Z,15.72
2023-05-25T17:02:24.045Z,15.66
2023-05-25T17:05:06.949Z,15.61
2023-05-25T17:07:54.055Z,15.54
2023-05-25T17:10:27.004Z,15.47
2023-05-25T17:13:14.954Z,15.45
2023-05-25T17:15:48.271Z,15.43
2023-05-25T17:18:34.964Z,15.36
2023-05-25T17:21:08.061Z,15.30
2023-05-25T17:23:56.911Z,15.26
2023-05-25T17:26:36.913Z,15.24
2023-05-25T17:29:30.894Z,15.22
2023-05-25T17:32:24.920Z,15.19
2023-05-25T17:35:20.907Z,15.16
2023-05-25T17:38:14.925Z,15.10
2023-05-25T17:41:08.911Z,15.09
2023-05-25T17:44:02.932Z,15.07
2023-05-25T17:46:56.903Z,15.06
2023-05-25T17:49:51.111Z,15.04
2023-05-25T17:52:44.913Z,15.03
2023-05-25T17:55:32.027Z,14.99
2023-05-25T17:58:05.042Z,14.93
2023-05-25T18:00:52.033Z,14.92
2023-05-25T18:03:26.080Z,14.90
2023-05-25T18:06:12.942Z,14.87
2023-05-25T18:08:52.933Z,14.82
2023-05-25T18:11:46.907Z,14.79
2023-05-25T18:14:33.938Z,14.72
2023-05-25T18:17:15.011Z,14.70
2023-05-25T18:20:08.949Z,14.67
2023-05-25T18:22:55.952Z,14.61
2023-05-25T18:25:29.042Z,14.59
2023-05-25T18:28:15.984Z,14.57
2023-05-25T18:30:49.136Z,14.56
2023-05-25T18:33:35.979Z,14.54
2023-05-25T18:36:09.062Z,14.52
2023-05-25T18:38:55.944Z,14.48
2023-05-25T18:41:29.057Z,14.47
2023-05-25T18:44:15.961Z,14.44
2023-05-25T18:46:57.980Z,14.45
2023-05-25T18:49:51.955Z,14.42
2023-05-25T18:52:45.953Z,14.39
2023-05-25T18:55:35.931Z,14.35
2023-05-25T18:58:09.129Z,14.34
2023-05-25T19:00:55.952Z,14.32
2023-05-25T19:03:29.119Z,14.29
2023-05-25T19:06:15.945Z,14.29
2023-05-25T19:08:49.690Z,14.30
2023-05-25T19:11:35.940Z,14.28
2023-05-25T19:14:16.008Z,14.27
2023-05-25T19:17:05.250Z,14.25
2023-05-25T19:19:39.051Z,14.22
2023-05-25T19:22:25.959Z,14.19
2023-05-25T19:25:05.971Z,14.19
2023-05-25T19:27:52.991Z,14.17
2023-05-25T19:30:33.016Z,14.15
2023-05-25T19:33:27.961Z,14.09
2023-05-25T19:36:22.130Z,14.08
2023-05-25T19:38:55.060Z,14.06
2023-05-25T19:41:43.959Z,14.05
2023-05-25T19:44:17.295Z,14.00
2023-05-25T19:47:03.969Z,13.97
2023-05-25T19:49:43.964Z,13.97
2023-05-25T19:52:33.020Z,13.96
2023-05-25T19:55:13.003Z,13.92
2023-05-25T19:57:59.957Z,13.88
2023-05-25T20:00:33.122Z,13.87
2023-05-25T20:03:22.098Z,13.86
2023-05-25T20:06:02.992Z,13.85
2023-05-25T20:08:57.007Z,13.85
2023-05-25T20:11:43.967Z,13.84
2023-05-25T20:14:18.569Z,13.83
2023-05-25T20:17:06.993Z,13.83
2023-05-25T20:19:40.180Z,13.84
2023-05-25T20:22:28.002Z,13.84
2023-05-25T20:25:07.986Z,13.85
2023-05-25T20:27:54.994Z,13.85
2023-05-25T20:30:28.091Z,13.82
2023-05-25T20:33:14.987Z,13.81
2023-05-25T20:35:48.297Z,13.79
2023-05-25T20:38:34.983Z,13.78
2023-05-25T20:41:14.997Z,13.77
2023-05-25T20:44:09.028Z,13.76
2023-05-25T20:47:10.983Z,13.74
2023-05-25T20:50:05.026Z,13.71
2023-05-25T20:52:59.011Z,13.67
2023-05-25T20:55:46.081Z,13.65
2023-05-25T20:58:20.195Z,13.64
2023-05-25T21:01:07.035Z,13.62
2023-05-25T21:03:48.125Z,13.64
2023-05-25T21:06:35.051Z,13.65
2023-05-25T21:09:09.103Z,13.66
2023-05-25T21:11:56.058Z,13.66
2023-05-25T21:14:29.874Z,13.64
2023-05-25T21:17:17.095Z,13.63
2023-05-25T21:19:50.294Z,13.62
2023-05-25T21:22:37.057Z,13.61
2023-05-25T21:25:11.699Z,13.61
2023-05-25T21:27:58.036Z,13.61
2023-05-25T21:30:31.134Z,13.63
2023-05-25T21:33:18.054Z,13.63
2023-05-25T21:35:58.034Z,13.66
2023-05-25T21:38:52.041Z,13.64
2023-05-25T21:41:39.016Z,13.61
2023-05-25T21:44:12.136Z,13.60
2023-05-25T21:47:06.077Z,13.57
2023-05-25T21:50:00.054Z,13.58
2023-05-25T21:52:48.053Z,13.57
2023-05-25T21:55:28.050Z,13.56
2023-05-25T21:58:15.039Z,13.56
2023-05-25T22:00:48.245Z,13.57
2023-05-25T22:03:35.223Z,13.61
2023-05-25T22:06:08.163Z,13.64
2023-05-25T22:08:55.090Z,13.65
2023-05-25T22:11:35.068Z,13.64
2023-05-25T22:14:22.030Z,13.63
2023-05-25T22:16:55.237Z,13.63
2023-05-25T22:19:44.836Z,13.63
2023-05-25T22:22:18.127Z,13.58
2023-05-25T22:25:05.175Z,13.56
2023-05-25T22:27:39.171Z,13.58
2023-05-25T22:30:26.072Z,13.60
2023-05-25T22:32:59.301Z,13.61
2023-05-25T22:35:46.305Z,13.61
2023-05-25T22:38:20.173Z,13.61
2023-05-25T22:41:07.090Z,13.64
2023-05-25T22:43:40.168Z,13.66
2023-05-25T22:46:34.097Z,13.65
2023-05-25T22:49:28.073Z,13.67
2023-05-25T22:52:18.094Z,13.70
2023-05-25T22:54:58.053Z,13.71
2023-05-25T22:57:52.056Z,13.71
2023-05-25T23:00:39.097Z,13.70
2023-05-25T23:03:12.345Z,13.70
2023-05-25T23:05:59.073Z,13.71
2023-05-25T23:08:32.252Z,13.73
2023-05-25T23:11:19.089Z,13.75
2023-05-25T23:13:54.735Z,13.75
2023-05-25T23:16:41.208Z,13.75
2023-05-25T23:19:14.180Z,13.79
2023-05-25T23:22:01.084Z,13.77
2023-05-25T23:24:41.090Z,13.73
2023-05-25T23:27:35.109Z,13.74
2023-05-25T23:30:29.080Z,13.72
2023-05-25T23:33:17.096Z,13.70
2023-05-25T23:35:58.116Z,13.71
2023-05-25T23:38:52.137Z,13.74
2023-05-25T23:41:46.086Z,13.75
2023-05-25T23:44:33.084Z,13.76
2023-05-25T23:47:06.261Z,13.76
2023-05-25T23:49:53.081Z,13.75
2023-05-25T23:52:26.178Z,13.75
2023-05-25T23:55:14.082Z,13.76
2023-05-25T23:57:47.229Z,13.74
